sensor_id;sensor_type;location;lat;lon;timestamp;P1;durP1;ratioP1;P2;durP2;ratioP2
77705;SDS011;66874;45.274;5.880;2023-11-21T00:02:04;19.02;;;9.00;;
77705;SDS011;66874;45.274;5.880;2023-11-21T00:04:30;17.02;;;8.65;;
77705;SDS011;66874;45.274;5.880;2023-11-21T00:06:55;28.98;;;8.90;;
77705;SDS011;66874;45.274;5.880;2023-11-21T00:09:20;13.02;;;7.75;;
77705;SDS011;66874;45.274;5.880;2023-11-21T00:11:46;17.42;;;9.55;;
77705;SDS011;66874;45.274;5.880;2023-11-21T00:14:12;22.90;;;10.77;;
77705;SDS011;66874;45.274;5.880;2023-11-21T00:19:05;19.02;;;8.80;;
77705;SDS011;66874;45.274;5.880;2023-11-21T00:21:30;22.95;;;9.82;;
77705;SDS011;66874;45.274;5.880;2023-11-21T00:23:55;26.67;;;10.35;;
77705;SDS011;66874;45.274;5.880;2023-11-21T00:26:21;23.17;;;11.85;;
77705;SDS011;66874;45.274;5.880;2023-11-21T00:28:46;21.08;;;11.25;;
77705;SDS011;66874;45.274;5.880;2023-11-21T00:31:11;23.70;;;12.30;;
77705;SDS011;66874;45.274;5.880;2023-11-21T00:33:37;22.63;;;12.52;;
77705;SDS011;66874;45.274;5.880;2023-11-21T00:36:02;25.08;;;13.10;;
77705;SDS011;66874;45.274;5.880;2023-11-21T00:38:28;25.90;;;13.32;;
77705;SDS011;66874;45.274;5.880;2023-11-21T00:40:53;24.35;;;13.00;;
77705;SDS011;66874;45.274;5.880;2023-11-21T00:45:47;21.20;;;11.37;;
77705;SDS011;66874;45.274;5.880;2023-11-21T00:48:14;27.15;;;11.68;;
77705;SDS011;66874;45.274;5.880;2023-11-21T00:50:39;22.90;;;10.93;;
77705;SDS011;66874;45.274;5.880;2023-11-21T00:53:05;18.65;;;10.75;;
77705;SDS011;66874;45.274;5.880;2023-11-21T00:55:32;22.70;;;11.15;;
77705;SDS011;66874;45.274;5.880;2023-11-21T00:57:58;20.65;;;10.48;;
77705;SDS011;66874;45.274;5.880;2023-11-21T01:00:23;18.42;;;10.38;;
77705;SDS011;66874;45.274;5.880;2023-11-21T01:02:49;18.38;;;10.20;;
77705;SDS011;66874;45.274;5.880;2023-11-21T01:05:14;16.77;;;9.70;;
77705;SDS011;66874;45.274;5.880;2023-11-21T01:07:39;19.80;;;8.90;;
77705;SDS011;66874;45.274;5.880;2023-11-21T01:10:05;17.00;;;9.30;;
77705;SDS011;66874;45.274;5.880;2023-11-21T01:12:33;15.13;;;8.15;;
77705;SDS011;66874;45.274;5.880;2023-11-21T01:15:03;13.77;;;7.63;;
77705;SDS011;66874;45.274;5.880;2023-11-21T01:17:32;10.55;;;5.65;;
77705;SDS011;66874;45.274;5.880;2023-11-21T01:19:59;14.55;;;7.55;;
77705;SDS011;66874;45.274;5.880;2023-11-21T01:22:25;9.77;;;5.30;;
77705;SDS011;66874;45.274;5.880;2023-11-21T01:24:51;12.18;;;5.63;;
77705;SDS011;66874;45.274;5.880;2023-11-21T01:27:18;8.00;;;5.10;;
77705;SDS011;66874;45.274;5.880;2023-11-21T01:29:43;9.02;;;4.55;;
77705;SDS011;66874;45.274;5.880;2023-11-21T01:32:09;12.63;;;5.13;;
77705;SDS011;66874;45.274;5.880;2023-11-21T01:34:34;12.75;;;5.63;;
77705;SDS011;66874;45.274;5.880;2023-11-21T01:37:00;13.60;;;6.53;;
77705;SDS011;66874;45.274;5.880;2023-11-21T01:39:27;10.10;;;5.68;;
77705;SDS011;66874;45.274;5.880;2023-11-21T01:41:53;10.85;;;6.35;;
77705;SDS011;66874;45.274;5.880;2023-11-21T01:44:18;9.27;;;5.00;;
77705;SDS011;66874;45.274;5.880;2023-11-21T01:46:44;11.57;;;5.57;;
77705;SDS011;66874;45.274;5.880;2023-11-21T01:49:11;11.88;;;5.75;;
77705;SDS011;66874;45.274;5.880;2023-11-21T01:51:38;9.38;;;4.78;;
77705;SDS011;66874;45.274;5.880;2023-11-21T01:54:05;9.10;;;4.97;;
77705;SDS011;66874;45.274;5.880;2023-11-21T01:56:32;9.75;;;5.03;;
77705;SDS011;66874;45.274;5.880;2023-11-21T01:58:57;11.50;;;5.47;;
77705;SDS011;66874;45.274;5.880;2023-11-21T02:01:23;8.82;;;5.05;;
77705;SDS011;66874;45.274;5.880;2023-11-21T02:03:48;11.90;;;5.15;;
77705;SDS011;66874;45.274;5.880;2023-11-21T02:06:14;9.85;;;5.38;;
77705;SDS011;66874;45.274;5.880;2023-11-21T02:08:39;8.63;;;4.63;;
77705;SDS011;66874;45.274;5.880;2023-11-21T02:11:07;11.52;;;5.28;;
77705;SDS011;66874;45.274;5.880;2023-11-21T02:13:34;9.48;;;5.50;;
77705;SDS011;66874;45.274;5.880;2023-11-21T02:15:59;11.55;;;5.72;;
77705;SDS011;66874;45.274;5.880;2023-11-21T02:18:25;9.20;;;4.75;;
77705;SDS011;66874;45.274;5.880;2023-11-21T02:20:50;11.00;;;5.47;;
77705;SDS011;66874;45.274;5.880;2023-11-21T02:23:16;10.50;;;4.88;;
77705;SDS011;66874;45.274;5.880;2023-11-21T02:25:41;10.85;;;4.18;;
77705;SDS011;66874;45.274;5.880;2023-11-21T02:28:07;12.10;;;4.43;;
77705;SDS011;66874;45.274;5.880;2023-11-21T02:30:33;7.10;;;3.88;;
77705;SDS011;66874;45.274;5.880;2023-11-21T02:32:58;6.65;;;3.80;;
77705;SDS011;66874;45.274;5.880;2023-11-21T02:35:24;6.43;;;3.33;;
77705;SDS011;66874;45.274;5.880;2023-11-21T02:37:53;6.00;;;2.92;;
77705;SDS011;66874;45.274;5.880;2023-11-21T02:40:19;5.90;;;3.67;;
77705;SDS011;66874;45.274;5.880;2023-11-21T02:42:50;5.57;;;2.78;;
77705;SDS011;66874;45.274;5.880;2023-11-21T02:45:16;4.72;;;2.20;;
77705;SDS011;66874;45.274;5.880;2023-11-21T02:47:42;4.97;;;2.38;;
77705;SDS011;66874;45.274;5.880;2023-11-21T02:50:08;6.03;;;1.77;;
77705;SDS011;66874;45.274;5.880;2023-11-21T02:52:34;3.45;;;1.67;;
77705;SDS011;66874;45.274;5.880;2023-11-21T02:55:01;4.38;;;2.00;;
77705;SDS011;66874;45.274;5.880;2023-11-21T02:57:29;4.53;;;1.88;;
77705;SDS011;66874;45.274;5.880;2023-11-21T02:59:55;3.60;;;1.85;;
77705;SDS011;66874;45.274;5.880;2023-11-21T03:02:21;5.22;;;1.90;;
77705;SDS011;66874;45.274;5.880;2023-11-21T03:04:47;4.13;;;1.70;;
77705;SDS011;66874;45.274;5.880;2023-11-21T03:07:14;3.15;;;1.48;;
77705;SDS011;66874;45.274;5.880;2023-11-21T03:09:39;3.65;;;1.70;;
77705;SDS011;66874;45.274;5.880;2023-11-21T03:12:05;3.38;;;1.67;;
77705;SDS011;66874;45.274;5.880;2023-11-21T03:14:30;2.03;;;1.25;;
77705;SDS011;66874;45.274;5.880;2023-11-21T03:16:56;3.92;;;1.85;;
77705;SDS011;66874;45.274;5.880;2023-11-21T03:19:22;2.28;;;1.08;;
77705;SDS011;66874;45.274;5.880;2023-11-21T03:21:47;3.00;;;1.40;;
77705;SDS011;66874;45.274;5.880;2023-11-21T03:24:12;6.68;;;2.00;;
77705;SDS011;66874;45.274;5.880;2023-11-21T03:26:38;4.20;;;1.45;;
77705;SDS011;66874;45.274;5.880;2023-11-21T03:29:03;3.85;;;1.20;;
77705;SDS011;66874;45.274;5.880;2023-11-21T03:31:29;2.97;;;1.52;;
77705;SDS011;66874;45.274;5.880;2023-11-21T03:33:55;2.70;;;1.50;;
77705;SDS011;66874;45.274;5.880;2023-11-21T03:36:20;2.35;;;1.20;;
77705;SDS011;66874;45.274;5.880;2023-11-21T03:38:47;3.30;;;1.25;;
77705;SDS011;66874;45.274;5.880;2023-11-21T03:41:13;2.55;;;1.23;;
77705;SDS011;66874;45.274;5.880;2023-11-21T03:43:39;2.13;;;1.20;;
77705;SDS011;66874;45.274;5.880;2023-11-21T03:46:05;4.63;;;1.70;;
77705;SDS011;66874;45.274;5.880;2023-11-21T03:48:30;3.13;;;1.23;;
77705;SDS011;66874;45.274;5.880;2023-11-21T03:50:58;2.38;;;1.33;;
77705;SDS011;66874;45.274;5.880;2023-11-21T03:53:23;2.92;;;1.40;;
77705;SDS011;66874;45.274;5.880;2023-11-21T03:55:49;10.60;;;1.65;;
77705;SDS011;66874;45.274;5.880;2023-11-21T03:58:15;2.08;;;1.17;;
77705;SDS011;66874;45.274;5.880;2023-11-21T04:00:40;3.67;;;0.75;;
77705;SDS011;66874;45.274;5.880;2023-11-21T04:03:05;2.80;;;1.40;;
77705;SDS011;66874;45.274;5.880;2023-11-21T04:05:31;4.68;;;1.48;;
77705;SDS011;66874;45.274;5.880;2023-11-21T04:07:56;2.08;;;1.23;;
77705;SDS011;66874;45.274;5.880;2023-11-21T04:10:22;4.53;;;1.25;;
77705;SDS011;66874;45.274;5.880;2023-11-21T04:12:47;2.25;;;1.23;;
77705;SDS011;66874;45.274;5.880;2023-11-21T04:15:13;1.73;;;0.80;;
77705;SDS011;66874;45.274;5.880;2023-11-21T04:17:39;2.00;;;1.20;;
77705;SDS011;66874;45.274;5.880;2023-11-21T04:20:05;2.38;;;1.20;;
77705;SDS011;66874;45.274;5.880;2023-11-21T04:22:38;3.63;;;1.10;;
77705;SDS011;66874;45.274;5.880;2023-11-21T04:25:09;4.18;;;1.50;;
77705;SDS011;66874;45.274;5.880;2023-11-21T04:27:36;2.40;;;1.52;;
77705;SDS011;66874;45.274;5.880;2023-11-21T04:30:01;2.95;;;1.08;;
77705;SDS011;66874;45.274;5.880;2023-11-21T04:32:27;4.18;;;1.50;;
77705;SDS011;66874;45.274;5.880;2023-11-21T04:34:52;2.50;;;0.95;;
77705;SDS011;66874;45.274;5.880;2023-11-21T04:37:17;1.88;;;1.00;;
77705;SDS011;66874;45.274;5.880;2023-11-21T04:39:43;2.22;;;1.38;;
77705;SDS011;66874;45.274;5.880;2023-11-21T04:42:08;3.55;;;1.40;;
77705;SDS011;66874;45.274;5.880;2023-11-21T04:44:33;1.40;;;1.10;;
77705;SDS011;66874;45.274;5.880;2023-11-21T04:46:59;3.47;;;1.10;;
77705;SDS011;66874;45.274;5.880;2023-11-21T04:49:24;1.92;;;1.02;;
77705;SDS011;66874;45.274;5.880;2023-11-21T04:51:49;2.08;;;1.10;;
77705;SDS011;66874;45.274;5.880;2023-11-21T04:54:15;2.40;;;1.50;;
77705;SDS011;66874;45.274;5.880;2023-11-21T04:56:40;6.00;;;1.90;;
77705;SDS011;66874;45.274;5.880;2023-11-21T04:59:05;3.95;;;1.98;;
77705;SDS011;66874;45.274;5.880;2023-11-21T05:01:31;3.63;;;1.55;;
77705;SDS011;66874;45.274;5.880;2023-11-21T05:03:56;2.80;;;1.55;;
77705;SDS011;66874;45.274;5.880;2023-11-21T05:06:22;4.68;;;1.30;;
77705;SDS011;66874;45.274;5.880;2023-11-21T05:08:48;2.08;;;1.00;;
77705;SDS011;66874;45.274;5.880;2023-11-21T05:11:22;5.43;;;1.63;;
77705;SDS011;66874;45.274;5.880;2023-11-21T05:13:51;3.63;;;1.08;;
77705;SDS011;66874;45.274;5.880;2023-11-21T05:16:17;2.35;;;1.20;;
77705;SDS011;66874;45.274;5.880;2023-11-21T05:18:42;2.67;;;1.45;;
77705;SDS011;66874;45.274;5.880;2023-11-21T05:21:07;2.63;;;1.42;;
77705;SDS011;66874;45.274;5.880;2023-11-21T05:23:33;4.70;;;1.75;;
77705;SDS011;66874;45.274;5.880;2023-11-21T05:25:59;3.33;;;1.35;;
77705;SDS011;66874;45.274;5.880;2023-11-21T05:28:24;2.50;;;1.33;;
77705;SDS011;66874;45.274;5.880;2023-11-21T05:30:50;7.75;;;1.63;;
77705;SDS011;66874;45.274;5.880;2023-11-21T05:33:15;4.10;;;2.13;;
77705;SDS011;66874;45.274;5.880;2023-11-21T05:35:41;3.70;;;1.33;;
77705;SDS011;66874;45.274;5.880;2023-11-21T05:38:06;3.35;;;1.30;;
77705;SDS011;66874;45.274;5.880;2023-11-21T05:40:31;2.25;;;1.40;;
77705;SDS011;66874;45.274;5.880;2023-11-21T05:42:57;2.90;;;1.58;;
77705;SDS011;66874;45.274;5.880;2023-11-21T05:45:23;2.30;;;1.20;;
77705;SDS011;66874;45.274;5.880;2023-11-21T05:47:48;2.90;;;1.25;;
77705;SDS011;66874;45.274;5.880;2023-11-21T05:50:14;2.13;;;1.33;;
77705;SDS011;66874;45.274;5.880;2023-11-21T05:52:41;1.80;;;1.17;;
77705;SDS011;66874;45.274;5.880;2023-11-21T05:55:08;4.97;;;1.42;;
77705;SDS011;66874;45.274;5.880;2023-11-21T05:57:34;3.25;;;1.48;;
77705;SDS011;66874;45.274;5.880;2023-11-21T06:02:39;3.95;;;1.60;;
77705;SDS011;66874;45.274;5.880;2023-11-21T06:05:08;2.95;;;1.70;;
77705;SDS011;66874;45.274;5.880;2023-11-21T06:07:34;2.65;;;1.60;;
77705;SDS011;66874;45.274;5.880;2023-11-21T06:10:01;7.88;;;2.47;;
77705;SDS011;66874;45.274;5.880;2023-11-21T06:12:28;4.85;;;1.98;;
77705;SDS011;66874;45.274;5.880;2023-11-21T06:14:54;3.03;;;1.80;;
77705;SDS011;66874;45.274;5.880;2023-11-21T06:17:20;3.13;;;1.83;;
77705;SDS011;66874;45.274;5.880;2023-11-21T06:19:46;5.15;;;2.33;;
77705;SDS011;66874;45.274;5.880;2023-11-21T06:22:11;2.85;;;1.48;;
77705;SDS011;66874;45.274;5.880;2023-11-21T06:24:36;6.55;;;1.80;;
77705;SDS011;66874;45.274;5.880;2023-11-21T06:27:03;3.67;;;1.70;;
77705;SDS011;66874;45.274;5.880;2023-11-21T06:29:29;4.78;;;1.88;;
77705;SDS011;66874;45.274;5.880;2023-11-21T06:31:55;3.75;;;1.77;;
77705;SDS011;66874;45.274;5.880;2023-11-21T06:34:20;3.72;;;1.73;;
77705;SDS011;66874;45.274;5.880;2023-11-21T06:36:46;5.28;;;1.80;;
77705;SDS011;66874;45.274;5.880;2023-11-21T06:39:12;5.05;;;1.90;;
77705;SDS011;66874;45.274;5.880;2023-11-21T06:44:05;4.53;;;1.58;;
77705;SDS011;66874;45.274;5.880;2023-11-21T06:46:30;5.18;;;2.13;;
77705;SDS011;66874;45.274;5.880;2023-11-21T06:48:56;4.80;;;2.00;;
77705;SDS011;66874;45.274;5.880;2023-11-21T06:51:21;5.85;;;2.40;;
77705;SDS011;66874;45.274;5.880;2023-11-21T06:53:46;8.98;;;2.25;;
77705;SDS011;66874;45.274;5.880;2023-11-21T06:56:15;4.68;;;2.47;;
77705;SDS011;66874;45.274;5.880;2023-11-21T06:58:44;6.47;;;2.80;;
77705;SDS011;66874;45.274;5.880;2023-11-21T07:01:11;9.50;;;2.83;;
77705;SDS011;66874;45.274;5.880;2023-11-21T07:03:36;10.80;;;2.92;;
77705;SDS011;66874;45.274;5.880;2023-11-21T07:06:02;8.35;;;2.75;;
77705;SDS011;66874;45.274;5.880;2023-11-21T07:08:28;27.55;;;12.00;;
77705;SDS011;66874;45.274;5.880;2023-11-21T07:10:53;42.10;;;21.00;;
77705;SDS011;66874;45.274;5.880;2023-11-21T07:13:19;23.50;;;12.13;;
77705;SDS011;66874;45.274;5.880;2023-11-21T07:15:44;11.07;;;5.28;;
77705;SDS011;66874;45.274;5.880;2023-11-21T07:18:09;11.35;;;3.65;;
77705;SDS011;66874;45.274;5.880;2023-11-21T07:20:35;6.75;;;3.10;;
77705;SDS011;66874;45.274;5.880;2023-11-21T07:23:00;7.75;;;3.20;;
77705;SDS011;66874;45.274;5.880;2023-11-21T07:25:26;5.00;;;2.88;;
77705;SDS011;66874;45.274;5.880;2023-11-21T07:27:51;4.57;;;2.80;;
77705;SDS011;66874;45.274;5.880;2023-11-21T07:30:17;5.57;;;2.95;;
77705;SDS011;66874;45.274;5.880;2023-11-21T07:32:43;6.95;;;3.60;;
77705;SDS011;66874;45.274;5.880;2023-11-21T07:35:11;6.88;;;3.45;;
77705;SDS011;66874;45.274;5.880;2023-11-21T07:37:36;10.43;;;3.80;;
77705;SDS011;66874;45.274;5.880;2023-11-21T07:40:02;7.60;;;3.80;;
77705;SDS011;66874;45.274;5.880;2023-11-21T07:42:28;5.00;;;3.35;;
77705;SDS011;66874;45.274;5.880;2023-11-21T07:44:53;5.65;;;2.95;;
77705;SDS011;66874;45.274;5.880;2023-11-21T07:47:19;10.45;;;4.05;;
77705;SDS011;66874;45.274;5.880;2023-11-21T07:49:44;10.55;;;4.10;;
77705;SDS011;66874;45.274;5.880;2023-11-21T07:52:10;5.45;;;3.05;;
77705;SDS011;66874;45.274;5.880;2023-11-21T07:54:35;7.80;;;3.65;;
77705;SDS011;66874;45.274;5.880;2023-11-21T07:57:01;6.53;;;3.58;;
77705;SDS011;66874;45.274;5.880;2023-11-21T07:59:27;13.07;;;4.47;;
77705;SDS011;66874;45.274;5.880;2023-11-21T08:01:53;8.80;;;3.85;;
77705;SDS011;66874;45.274;5.880;2023-11-21T08:04:19;10.05;;;3.67;;
77705;SDS011;66874;45.274;5.880;2023-11-21T08:06:44;12.43;;;4.30;;
77705;SDS011;66874;45.274;5.880;2023-11-21T08:09:09;12.18;;;4.18;;
77705;SDS011;66874;45.274;5.880;2023-11-21T08:11:37;8.68;;;3.75;;
77705;SDS011;66874;45.274;5.880;2023-11-21T08:14:04;8.25;;;4.03;;
77705;SDS011;66874;45.274;5.880;2023-11-21T08:16:29;12.77;;;4.78;;
77705;SDS011;66874;45.274;5.880;2023-11-21T08:18:55;9.13;;;4.22;;
77705;SDS011;66874;45.274;5.880;2023-11-21T08:21:20;9.05;;;4.35;;
77705;SDS011;66874;45.274;5.880;2023-11-21T08:23:46;8.38;;;3.95;;
77705;SDS011;66874;45.274;5.880;2023-11-21T08:26:12;7.95;;;3.92;;
77705;SDS011;66874;45.274;5.880;2023-11-21T08:28:38;10.52;;;4.63;;
77705;SDS011;66874;45.274;5.880;2023-11-21T08:31:03;10.50;;;4.40;;
77705;SDS011;66874;45.274;5.880;2023-11-21T08:33:29;8.98;;;3.92;;
77705;SDS011;66874;45.274;5.880;2023-11-21T08:35:55;8.20;;;4.65;;
77705;SDS011;66874;45.274;5.880;2023-11-21T08:38:20;10.35;;;5.05;;
77705;SDS011;66874;45.274;5.880;2023-11-21T08:40:45;8.45;;;4.47;;
77705;SDS011;66874;45.274;5.880;2023-11-21T08:43:11;10.68;;;5.03;;
77705;SDS011;66874;45.274;5.880;2023-11-21T08:45:37;10.25;;;5.82;;
77705;SDS011;66874;45.274;5.880;2023-11-21T08:48:02;9.98;;;5.05;;
77705;SDS011;66874;45.274;5.880;2023-11-21T08:50:28;10.52;;;5.10;;
77705;SDS011;66874;45.274;5.880;2023-11-21T08:52:54;12.48;;;6.18;;
77705;SDS011;66874;45.274;5.880;2023-11-21T08:55:19;8.48;;;4.97;;
77705;SDS011;66874;45.274;5.880;2023-11-21T08:57:45;10.95;;;5.55;;
77705;SDS011;66874;45.274;5.880;2023-11-21T09:00:11;10.03;;;5.63;;
77705;SDS011;66874;45.274;5.880;2023-11-21T09:02:40;12.52;;;5.22;;
77705;SDS011;66874;45.274;5.880;2023-11-21T09:05:10;11.85;;;4.57;;
77705;SDS011;66874;45.274;5.880;2023-11-21T09:07:36;11.60;;;5.40;;
77705;SDS011;66874;45.274;5.880;2023-11-21T09:10:03;10.57;;;5.38;;
77705;SDS011;66874;45.274;5.880;2023-11-21T09:12:30;12.18;;;4.82;;
77705;SDS011;66874;45.274;5.880;2023-11-21T09:14:57;10.13;;;5.20;;
77705;SDS011;66874;45.274;5.880;2023-11-21T09:17:23;12.07;;;7.03;;
77705;SDS011;66874;45.274;5.880;2023-11-21T09:19:49;11.00;;;4.40;;
77705;SDS011;66874;45.274;5.880;2023-11-21T09:22:17;8.68;;;4.63;;
77705;SDS011;66874;45.274;5.880;2023-11-21T09:24:42;10.93;;;4.45;;
77705;SDS011;66874;45.274;5.880;2023-11-21T09:27:08;11.20;;;4.93;;
77705;SDS011;66874;45.274;5.880;2023-11-21T09:29:34;8.43;;;5.03;;
77705;SDS011;66874;45.274;5.880;2023-11-21T09:32:06;8.13;;;4.65;;
77705;SDS011;66874;45.274;5.880;2023-11-21T09:34:35;9.35;;;4.20;;
77705;SDS011;66874;45.274;5.880;2023-11-21T09:37:03;7.50;;;4.15;;
77705;SDS011;66874;45.274;5.880;2023-11-21T09:39:31;6.95;;;4.40;;
77705;SDS011;66874;45.274;5.880;2023-11-21T09:41:57;7.15;;;4.40;;
77705;SDS011;66874;45.274;5.880;2023-11-21T09:44:40;8.65;;;3.97;;
77705;SDS011;66874;45.274;5.880;2023-11-21T09:47:30;9.90;;;4.65;;
77705;SDS011;66874;45.274;5.880;2023-11-21T09:49:58;11.95;;;4.40;;
77705;SDS011;66874;45.274;5.880;2023-11-21T09:52:26;8.05;;;4.28;;
77705;SDS011;66874;45.274;5.880;2023-11-21T09:54:53;8.18;;;4.13;;
77705;SDS011;66874;45.274;5.880;2023-11-21T09:57:22;14.75;;;5.78;;
77705;SDS011;66874;45.274;5.880;2023-11-21T09:59:50;8.68;;;4.05;;
77705;SDS011;66874;45.274;5.880;2023-11-21T10:02:17;8.10;;;4.05;;
77705;SDS011;66874;45.274;5.880;2023-11-21T10:04:44;7.03;;;4.40;;
77705;SDS011;66874;45.274;5.880;2023-11-21T10:07:10;12.33;;;4.60;;
77705;SDS011;66874;45.274;5.880;2023-11-21T10:09:37;10.98;;;4.68;;
77705;SDS011;66874;45.274;5.880;2023-11-21T10:12:03;9.43;;;4.40;;
77705;SDS011;66874;45.274;5.880;2023-11-21T10:14:33;7.28;;;4.18;;
77705;SDS011;66874;45.274;5.880;2023-11-21T10:17:02;11.93;;;4.68;;
77705;SDS011;66874;45.274;5.880;2023-11-21T10:19:28;8.48;;;3.80;;
77705;SDS011;66874;45.274;5.880;2023-11-21T10:21:54;7.80;;;4.57;;
77705;SDS011;66874;45.274;5.880;2023-11-21T10:24:22;7.25;;;4.18;;
77705;SDS011;66874;45.274;5.880;2023-11-21T10:26:48;8.77;;;4.93;;
77705;SDS011;66874;45.274;5.880;2023-11-21T10:29:14;8.43;;;4.35;;
77705;SDS011;66874;45.274;5.880;2023-11-21T10:31:42;9.57;;;4.75;;
77705;SDS011;66874;45.274;5.880;2023-11-21T10:34:14;10.77;;;3.90;;
77705;SDS011;66874;45.274;5.880;2023-11-21T10:36:41;13.85;;;3.55;;
77705;SDS011;66874;45.274;5.880;2023-11-21T10:39:06;5.68;;;3.92;;
77705;SDS011;66874;45.274;5.880;2023-11-21T10:41:32;6.20;;;3.17;;
77705;SDS011;66874;45.274;5.880;2023-11-21T10:43:58;6.40;;;4.07;;
77705;SDS011;66874;45.274;5.880;2023-11-21T10:46:23;6.20;;;3.78;;
77705;SDS011;66874;45.274;5.880;2023-11-21T10:48:54;3.72;;;2.53;;
77705;SDS011;66874;45.274;5.880;2023-11-21T10:51:21;5.88;;;2.78;;
77705;SDS011;66874;45.274;5.880;2023-11-21T10:53:46;9.43;;;5.82;;
77705;SDS011;66874;45.274;5.880;2023-11-21T10:56:13;10.00;;;5.63;;
77705;SDS011;66874;45.274;5.880;2023-11-21T10:58:42;9.20;;;4.35;;
77705;SDS011;66874;45.274;5.880;2023-11-21T11:01:08;8.65;;;3.38;;
77705;SDS011;66874;45.274;5.880;2023-11-21T11:03:37;7.40;;;3.42;;
77705;SDS011;66874;45.274;5.880;2023-11-21T11:06:05;6.75;;;3.03;;
77705;SDS011;66874;45.274;5.880;2023-11-21T11:08:36;8.50;;;3.10;;
77705;SDS011;66874;45.274;5.880;2023-11-21T11:11:07;6.15;;;3.22;;
77705;SDS011;66874;45.274;5.880;2023-11-21T11:13:35;5.63;;;2.70;;
77705;SDS011;66874;45.274;5.880;2023-11-21T11:16:02;5.68;;;2.70;;
77705;SDS011;66874;45.274;5.880;2023-11-21T11:18:32;7.85;;;3.03;;
77705;SDS011;66874;45.274;5.880;2023-11-21T11:21:09;6.55;;;2.63;;
77705;SDS011;66874;45.274;5.880;2023-11-21T11:24:05;7.82;;;2.35;;
77705;SDS011;66874;45.274;5.880;2023-11-21T11:34:44;8.32;;;2.53;;
77705;SDS011;66874;45.274;5.880;2023-11-21T11:37:15;6.47;;;2.53;;
77705;SDS011;66874;45.274;5.880;2023-11-21T11:39:41;5.18;;;2.05;;
77705;SDS011;66874;45.274;5.880;2023-11-21T11:42:14;4.78;;;2.08;;
77705;SDS011;66874;45.274;5.880;2023-11-21T11:47:28;5.65;;;1.90;;
77705;SDS011;66874;45.274;5.880;2023-11-21T11:52:41;4.32;;;1.58;;
77705;SDS011;66874;45.274;5.880;2023-11-21T11:55:18;3.97;;;1.70;;
77705;SDS011;66874;45.274;5.880;2023-11-21T11:57:49;4.88;;;1.63;;
77705;SDS011;66874;45.274;5.880;2023-11-21T12:02:54;4.15;;;1.83;;
77705;SDS011;66874;45.274;5.880;2023-11-21T12:05:26;3.90;;;2.08;;
77705;SDS011;66874;45.274;5.880;2023-11-21T12:08:01;6.70;;;4.75;;
77705;SDS011;66874;45.274;5.880;2023-11-21T12:10:29;2.60;;;1.65;;
77705;SDS011;66874;45.274;5.880;2023-11-21T12:12:59;4.93;;;1.90;;
77705;SDS011;66874;45.274;5.880;2023-11-21T12:15:26;3.13;;;1.70;;
77705;SDS011;66874;45.274;5.880;2023-11-21T12:17:55;3.28;;;2.08;;
77705;SDS011;66874;45.274;5.880;2023-11-21T12:20:21;4.22;;;2.25;;
77705;SDS011;66874;45.274;5.880;2023-11-21T12:22:49;7.43;;;1.95;;
77705;SDS011;66874;45.274;5.880;2023-11-21T12:25:19;7.22;;;1.88;;
77705;SDS011;66874;45.274;5.880;2023-11-21T12:27:47;5.00;;;1.70;;
77705;SDS011;66874;45.274;5.880;2023-11-21T12:30:14;9.00;;;2.28;;
77705;SDS011;66874;45.274;5.880;2023-11-21T12:32:41;5.90;;;2.17;;
77705;SDS011;66874;45.274;5.880;2023-11-21T12:35:10;5.85;;;2.03;;
77705;SDS011;66874;45.274;5.880;2023-11-21T12:37:40;3.47;;;1.55;;
77705;SDS011;66874;45.274;5.880;2023-11-21T12:40:09;5.25;;;1.52;;
77705;SDS011;66874;45.274;5.880;2023-11-21T12:42:46;29.55;;;12.82;;
77705;SDS011;66874;45.274;5.880;2023-11-21T12:47:45;3.75;;;2.20;;
77705;SDS011;66874;45.274;5.880;2023-11-21T12:50:12;3.75;;;1.92;;
77705;SDS011;66874;45.274;5.880;2023-11-21T12:52:41;5.22;;;2.30;;
77705;SDS011;66874;45.274;5.880;2023-11-21T12:55:09;7.82;;;2.00;;
77705;SDS011;66874;45.274;5.880;2023-11-21T12:57:34;4.95;;;2.13;;
77705;SDS011;66874;45.274;5.880;2023-11-21T13:00:03;3.15;;;1.80;;
77705;SDS011;66874;45.274;5.880;2023-11-21T13:02:37;4.97;;;1.90;;
77705;SDS011;66874;45.274;5.880;2023-11-21T13:05:03;2.75;;;1.48;;
77705;SDS011;66874;45.274;5.880;2023-11-21T13:07:40;3.05;;;1.45;;
77705;SDS011;66874;45.274;5.880;2023-11-21T13:10:13;1.13;;;1.02;;
77705;SDS011;66874;45.274;5.880;2023-11-21T13:12:45;5.47;;;1.50;;
77705;SDS011;66874;45.274;5.880;2023-11-21T13:15:13;3.10;;;1.50;;
77705;SDS011;66874;45.274;5.880;2023-11-21T13:17:42;4.40;;;1.40;;
77705;SDS011;66874;45.274;5.880;2023-11-21T13:20:07;2.70;;;1.25;;
77705;SDS011;66874;45.274;5.880;2023-11-21T13:22:35;2.95;;;1.00;;
77705;SDS011;66874;45.274;5.880;2023-11-21T13:25:00;1.48;;;1.00;;
77705;SDS011;66874;45.274;5.880;2023-11-21T13:27:32;3.00;;;1.00;;
77705;SDS011;66874;45.274;5.880;2023-11-21T13:29:58;5.93;;;1.50;;
77705;SDS011;66874;45.274;5.880;2023-11-21T13:32:24;4.38;;;1.50;;
77705;SDS011;66874;45.274;5.880;2023-11-21T13:34:50;5.28;;;2.03;;
77705;SDS011;66874;45.274;5.880;2023-11-21T13:37:19;5.30;;;1.75;;
77705;SDS011;66874;45.274;5.880;2023-11-21T13:39:44;3.50;;;1.45;;
77705;SDS011;66874;45.274;5.880;2023-11-21T13:42:14;1.77;;;1.17;;
77705;SDS011;66874;45.274;5.880;2023-11-21T13:44:41;3.45;;;1.40;;
77705;SDS011;66874;45.274;5.880;2023-11-21T13:47:11;4.15;;;1.50;;
77705;SDS011;66874;45.274;5.880;2023-11-21T13:49:37;4.72;;;1.30;;
77705;SDS011;66874;45.274;5.880;2023-11-21T13:52:05;7.55;;;1.33;;
77705;SDS011;66874;45.274;5.880;2023-11-21T13:54:32;3.33;;;1.20;;
77705;SDS011;66874;45.274;5.880;2023-11-21T13:56:58;3.00;;;1.38;;
77705;SDS011;66874;45.274;5.880;2023-11-21T13:59:25;3.58;;;1.27;;
77705;SDS011;66874;45.274;5.880;2023-11-21T14:01:53;4.22;;;1.45;;
77705;SDS011;66874;45.274;5.880;2023-11-21T14:04:24;3.97;;;1.20;;
77705;SDS011;66874;45.274;5.880;2023-11-21T14:07:19;4.78;;;1.48;;
77705;SDS011;66874;45.274;5.880;2023-11-21T14:09:57;2.53;;;1.13;;
77705;SDS011;66874;45.274;5.880;2023-11-21T14:12:23;7.78;;;1.65;;
77705;SDS011;66874;45.274;5.880;2023-11-21T14:14:49;4.07;;;1.40;;
77705;SDS011;66874;45.274;5.880;2023-11-21T14:17:14;2.38;;;1.30;;
77705;SDS011;66874;45.274;5.880;2023-11-21T14:19:40;2.13;;;1.38;;
77705;SDS011;66874;45.274;5.880;2023-11-21T14:22:07;2.42;;;1.35;;
77705;SDS011;66874;45.274;5.880;2023-11-21T14:24:34;3.85;;;1.83;;
77705;SDS011;66874;45.274;5.880;2023-11-21T14:27:00;17.25;;;8.30;;
77705;SDS011;66874;45.274;5.880;2023-11-21T14:29:25;4.18;;;2.50;;
77705;SDS011;66874;45.274;5.880;2023-11-21T14:31:52;7.40;;;3.40;;
77705;SDS011;66874;45.274;5.880;2023-11-21T14:34:21;3.80;;;2.10;;
77705;SDS011;66874;45.274;5.880;2023-11-21T14:36:47;4.32;;;1.98;;
77705;SDS011;66874;45.274;5.880;2023-11-21T14:39:14;1.38;;;1.08;;
77705;SDS011;66874;45.274;5.880;2023-11-21T14:41:49;4.07;;;1.20;;
77705;SDS011;66874;45.274;5.880;2023-11-21T14:44:15;5.35;;;1.90;;
77705;SDS011;66874;45.274;5.880;2023-11-21T14:46:40;2.53;;;1.65;;
77705;SDS011;66874;45.274;5.880;2023-11-21T14:49:10;5.53;;;1.08;;
77705;SDS011;66874;45.274;5.880;2023-11-21T14:51:49;1.63;;;1.00;;
77705;SDS011;66874;45.274;5.880;2023-11-21T14:54:25;3.55;;;0.88;;
77705;SDS011;66874;45.274;5.880;2023-11-21T14:57:10;2.03;;;1.02;;
77705;SDS011;66874;45.274;5.880;2023-11-21T14:59:47;2.90;;;2.23;;
77705;SDS011;66874;45.274;5.880;2023-11-21T15:02:17;1.23;;;1.08;;
77705;SDS011;66874;45.274;5.880;2023-11-21T15:04:47;1.42;;;0.88;;
77705;SDS011;66874;45.274;5.880;2023-11-21T15:07:13;1.58;;;1.23;;
77705;SDS011;66874;45.274;5.880;2023-11-21T15:09:39;2.13;;;1.10;;
77705;SDS011;66874;45.274;5.880;2023-11-21T15:12:10;1.45;;;1.15;;